Terminal Aerodrome Forecast
Issued by NWS Bismarck, ND

Home | Current Version | Previous Version | Text Only | Print | Product List | Glossary On
Versions: 1 2 3 4 5 6 7 8 9 10 11 12 13 14 15 16 17 18 19 20 21 22
000
FTUS43 KBIS 231726
TAFBIS
TAF
KBIS 231726Z 2318/2418 09016G25KT P6SM OVC015
     FM240300 07013G21KT P6SM OVC008
     FM241200 03009KT P6SM -RASN OVC008
     FM241500 01009KT 5SM -RA OVC008
     FM241700 35010KT P6SM -RA OVC010=

USA.gov is the U.S. government's official web portal to all federal, state and local government web resources and services.